Time;durP1;ratioP1;P1;durP2;ratioP2;P2;SDS_P1;SDS_P2;PMS_P1;PMS_P2;Temp;Humidity;BMP_temperature;BMP_pressure;BME280_temperature;BME280_humidity;BME280_pressure;Samples;Min_cycle;Max_cycle;Signal;HPM_P1;HPM_P2
2022/11/03 00:01:08;;;;;;;;;3.25;2.00;;;;;;;;5108421;27;61779;-75
2022/11/03 00:03:34;;;;;;;;;1.25;1.00;;;;;;;;5109023;27;61755;-74
2022/11/03 00:06:05;;;;;;;;;1.75;1.75;;;;;;;;5108437;27;61826;-74
2022/11/03 00:08:36;;;;;;;;;5.00;2.00;;;;;;;;5108491;27;61980;-75
2022/11/03 00:11:05;;;;;;;;;2.75;1.50;;;;;;;;5090574;27;61893;-74
2022/11/03 00:13:31;;;;;;;;;5.00;3.00;;;;;;;;5090471;27;61918;-74
2022/11/03 00:15:56;;;;;;;;;2.25;1.00;;;;;;;;5105499;27;63139;-74
2022/11/03 00:18:22;;;;;;;;;1.50;1.25;;;;;;;;5086375;27;61836;-75
2022/11/03 00:20:57;;;;;;;;;1.25;1.25;;;;;;;;5096839;27;61684;-75
2022/11/03 00:23:23;;;;;;;;;2.75;2.00;;;;;;;;5084893;28;61806;-74
2022/11/03 00:25:49;;;;;;;;;1.00;1.00;;;;;;;;5084314;28;61772;-74
2022/11/03 00:28:14;;;;;;;;;3.25;1.75;;;;;;;;5084991;28;61836;-75
2022/11/03 00:30:39;;;;;;;;;5.50;3.00;;;;;;;;5083790;27;61908;-75
2022/11/03 00:33:04;;;;;;;;;3.50;2.00;;;;;;;;5066742;28;61844;-74
2022/11/03 00:35:30;;;;;;;;;4.00;4.00;;;;;;;;5083910;28;62565;-74
2022/11/03 00:37:55;;;;;;;;;3.50;3.00;;;;;;;;5096820;27;61719;-75
2022/11/03 00:40:21;;;;;;;;;2.00;2.00;;;;;;;;5104835;27;62076;-75
2022/11/03 00:42:46;;;;;;;;;4.50;2.00;;;;;;;;5105194;27;61661;-75
2022/11/03 00:45:11;;;;;;;;;3.00;2.00;;;;;;;;5085103;27;63624;-75
2022/11/03 00:48:28;;;;;;;;;4.25;2.00;;;;;;;;5104671;27;61967;-75
2022/11/03 00:50:22;;;;;;;;;4.00;2.50;;;;;;;;5104610;27;61915;-75
2022/11/03 00:52:47;;;;;;;;;2.75;1.50;;;;;;;;5105073;27;61984;-74
2022/11/03 00:55:12;;;;;;;;;3.75;2.00;;;;;;;;5085485;27;63764;-75
2022/11/03 00:57:37;;;;;;;;;4.00;1.25;;;;;;;;5104423;27;61799;-75
2022/11/03 01:00:03;;;;;;;;;4.00;2.00;;;;;;;;5104516;27;62027;-74
2022/11/03 01:02:28;;;;;;;;;1.00;1.00;;;;;;;;5104792;27;62029;-75
2022/11/03 01:07:38;;;;;;;;;3.50;2.25;;;;;;;;5104602;27;61776;-74
2022/11/03 01:10:04;;;;;;;;;3.75;3.25;;;;;;;;5104688;27;61903;-74
2022/11/03 01:12:29;;;;;;;;;5.50;2.75;;;;;;;;5104326;27;61722;-74
2022/11/03 01:14:54;;;;;;;;;3.50;2.00;;;;;;;;5103841;27;62752;-75
2022/11/03 01:17:19;;;;;;;;;4.50;2.00;;;;;;;;5104246;27;61675;-74
2022/11/03 01:19:45;;;;;;;;;5.00;2.25;;;;;;;;5103743;27;61664;-74
2022/11/03 01:22:11;;;;;;;;;3.25;2.25;;;;;;;;5084583;27;61770;-74
2022/11/03 01:24:37;;;;;;;;;3.75;3.75;;;;;;;;5083154;27;62069;-74
2022/11/03 01:27:02;;;;;;;;;3.00;1.00;;;;;;;;5083012;28;61791;-75
2022/11/03 01:29:27;;;;;;;;;6.75;2.00;;;;;;;;5083191;28;61725;-75
2022/11/03 01:31:53;;;;;;;;;3.00;3.00;;;;;;;;5065002;27;61787;-74
2022/11/03 01:34:19;;;;;;;;;3.00;1.75;;;;;;;;5064855;28;63257;-75
2022/11/03 01:36:46;;;;;;;;;1.75;1.75;;;;;;;;5085732;27;61818;-74
2022/11/03 01:39:13;;;;;;;;;4.50;2.00;;;;;;;;5085418;27;61937;-75
2022/11/03 01:41:40;;;;;;;;;1.75;1.75;;;;;;;;5085629;27;61909;-74
2022/11/03 01:44:08;;;;;;;;;2.25;1.75;;;;;;;;5103593;27;61875;-75
2022/11/03 01:46:41;;;;;;;;;1.00;1.00;;;;;;;;5103557;27;62076;-74
2022/11/03 01:49:10;;;;;;;;;3.00;2.00;;;;;;;;5103299;27;61958;-74
2022/11/03 01:51:36;;;;;;;;;3.75;2.00;;;;;;;;5085995;27;61698;-74
2022/11/03 01:54:08;;;;;;;;;3.75;2.00;;;;;;;;5103225;27;61784;-74
2022/11/03 01:56:35;;;;;;;;;2.00;2.00;;;;;;;;5084889;27;62022;-75
2022/11/03 01:59:01;;;;;;;;;2.50;2.25;;;;;;;;5103318;27;61967;-74
2022/11/03 02:01:26;;;;;;;;;6.25;2.75;;;;;;;;5104025;27;61733;-75
2022/11/03 02:03:56;;;;;;;;;2.25;2.25;;;;;;;;5103032;27;62590;-75
2022/11/03 02:06:24;;;;;;;;;6.25;1.75;;;;;;;;5085188;27;62073;-75
2022/11/03 02:08:52;;;;;;;;;1.00;1.00;;;;;;;;5085376;27;61922;-75
2022/11/03 02:14:01;;;;;;;;;3.25;2.00;;;;;;;;5102751;27;61795;-75
2022/11/03 02:16:28;;;;;;;;;3.75;2.00;;;;;;;;5103493;27;61931;-74
2022/11/03 02:18:54;;;;;;;;;4.50;3.00;;;;;;;;5084512;27;61861;-75
2022/11/03 02:21:23;;;;;;;;;2.00;0.00;;;;;;;;5090866;27;61692;-74
2022/11/03 02:24:06;;;;;;;;;5.00;2.75;;;;;;;;5082162;28;61874;-74
2022/11/03 02:26:32;;;;;;;;;2.75;2.75;;;;;;;;5082361;28;61820;-75
2022/11/03 02:28:57;;;;;;;;;3.00;3.00;;;;;;;;5064285;28;61848;-74
2022/11/03 02:31:28;;;;;;;;;7.75;3.00;;;;;;;;5064493;28;61814;-75
2022/11/03 02:34:12;;;;;;;;;5.50;2.25;;;;;;;;5082034;28;62700;-75
2022/11/03 02:36:56;;;;;;;;;3.00;2.00;;;;;;;;5083469;27;62033;-75
2022/11/03 02:39:24;;;;;;;;;4.00;1.50;;;;;;;;5097304;27;61725;-75
2022/11/03 02:41:50;;;;;;;;;4.50;2.00;;;;;;;;5084808;27;62152;-74
2022/11/03 02:44:17;;;;;;;;;4.25;2.75;;;;;;;;5084028;27;63648;-74
2022/11/03 02:46:44;;;;;;;;;3.00;3.00;;;;;;;;5102614;27;61934;-75
2022/11/03 02:49:12;;;;;;;;;3.00;3.00;;;;;;;;5102763;27;61822;-74
2022/11/03 02:51:37;;;;;;;;;3.25;2.00;;;;;;;;5103408;27;61725;-74
2022/11/03 02:54:03;;;;;;;;;2.00;1.00;;;;;;;;5083134;27;62807;-75
2022/11/03 02:56:30;;;;;;;;;2.50;1.50;;;;;;;;5084588;27;61800;-74
2022/11/03 02:59:00;;;;;;;;;2.00;2.00;;;;;;;;5102881;27;62075;-74
2022/11/03 03:01:35;;;;;;;;;2.50;1.00;;;;;;;;5102942;27;62013;-74
2022/11/03 03:04:04;;;;;;;;;4.50;2.00;;;;;;;;5083743;27;63467;-74
2022/11/03 03:06:31;;;;;;;;;4.00;2.25;;;;;;;;5102738;27;61988;-74
2022/11/03 03:09:02;;;;;;;;;3.50;2.00;;;;;;;;5102341;27;61854;-75
2022/11/03 03:11:37;;;;;;;;;2.25;2.00;;;;;;;;5103118;27;61891;-74
2022/11/03 03:14:04;;;;;;;;;4.50;2.00;;;;;;;;5083485;27;63503;-74
2022/11/03 03:16:33;;;;;;;;;6.00;2.25;;;;;;;;5102302;27;61980;-74
2022/11/03 03:18:58;;;;;;;;;4.00;2.00;;;;;;;;5083861;27;61834;-74
2022/11/03 03:21:27;;;;;;;;;2.75;1.25;;;;;;;;5071073;28;61743;-75
2022/11/03 03:24:05;;;;;;;;;2.75;2.00;;;;;;;;5081080;28;62836;-74
2022/11/03 03:26:36;;;;;;;;;3.50;2.00;;;;;;;;5081862;27;62092;-74
2022/11/03 03:29:08;;;;;;;;;2.25;1.75;;;;;;;;5063738;28;61701;-74
2022/11/03 03:31:35;;;;;;;;;1.25;1.25;;;;;;;;5082313;28;61960;-75
2022/11/03 03:34:02;;;;;;;;;4.00;3.00;;;;;;;;5080946;27;62289;-74
2022/11/03 03:36:28;;;;;;;;;2.00;2.00;;;;;;;;5081921;28;61743;-75
2022/11/03 03:38:57;;;;;;;;;2.00;2.00;;;;;;;;5101531;27;61747;-75
2022/11/03 03:41:23;;;;;;;;;4.00;1.00;;;;;;;;5084172;27;61857;-75
2022/11/03 03:43:53;;;;;;;;;2.00;1.00;;;;;;;;5083477;27;64683;-74
2022/11/03 03:46:20;;;;;;;;;4.75;3.00;;;;;;;;5101807;27;62044;-74
2022/11/03 03:48:46;;;;;;;;;3.50;2.00;;;;;;;;5101757;27;61763;-74
2022/11/03 03:51:12;;;;;;;;;5.00;1.00;;;;;;;;5103063;27;62006;-74
2022/11/03 03:53:38;;;;;;;;;2.25;1.00;;;;;;;;5105215;27;62824;-74
2022/11/03 03:56:04;;;;;;;;;6.00;3.00;;;;;;;;5105511;27;61759;-74
2022/11/03 03:58:30;;;;;;;;;2.00;1.00;;;;;;;;5087037;27;61890;-74
2022/11/03 04:00:55;;;;;;;;;5.50;3.75;;;;;;;;5086968;27;61851;-75
2022/11/03 04:03:22;;;;;;;;;1.00;1.00;;;;;;;;5105109;27;61801;-74
2022/11/03 04:05:47;;;;;;;;;3.50;2.00;;;;;;;;5105524;27;61951;-74
2022/11/03 04:08:14;;;;;;;;;3.50;2.25;;;;;;;;5105138;27;61790;-74
2022/11/03 04:10:39;;;;;;;;;3.75;1.25;;;;;;;;5087481;27;62105;-74
2022/11/03 04:24:01;;;;;;;;;3.00;2.00;;;;;;;;5084259;27;61782;-74
2022/11/03 04:26:27;;;;;;;;;4.00;2.50;;;;;;;;5084720;28;62412;-74
2022/11/03 04:28:53;;;;;;;;;3.00;2.50;;;;;;;;5084958;28;61806;-75
2022/11/03 04:31:18;;;;;;;;;4.75;1.50;;;;;;;;5084744;27;62071;-74
2022/11/03 04:33:44;;;;;;;;;2.50;2.50;;;;;;;;5084388;28;61747;-74
2022/11/03 04:36:10;;;;;;;;;3.50;1.50;;;;;;;;5084469;28;61800;-74
2022/11/03 04:38:36;;;;;;;;;3.25;2.00;;;;;;;;5098690;27;61957;-74
2022/11/03 04:41:02;;;;;;;;;2.00;2.00;;;;;;;;5105013;27;61736;-74
2022/11/03 04:43:32;;;;;;;;;2.00;2.00;;;;;;;;5086000;27;63635;-75
2022/11/03 04:45:58;;;;;;;;;3.25;2.00;;;;;;;;5104627;27;62100;-74
2022/11/03 04:48:24;;;;;;;;;3.75;2.00;;;;;;;;5085333;27;61736;-74
2022/11/03 04:50:52;;;;;;;;;6.25;4.00;;;;;;;;5104820;27;61657;-74
2022/11/03 04:53:18;;;;;;;;;2.00;2.00;;;;;;;;5104290;27;61826;-75
2022/11/03 04:55:45;;;;;;;;;2.50;1.00;;;;;;;;5104532;27;61679;-74
2022/11/03 04:58:17;;;;;;;;;3.25;2.00;;;;;;;;5104913;27;61845;-74
2022/11/03 05:00:42;;;;;;;;;1.00;1.00;;;;;;;;5104554;27;61780;-74
2022/11/03 05:03:12;;;;;;;;;2.25;1.00;;;;;;;;5104039;27;61917;-74
2022/11/03 05:05:38;;;;;;;;;2.25;1.50;;;;;;;;5104177;27;61885;-74
2022/11/03 05:08:07;;;;;;;;;2.00;2.00;;;;;;;;5104599;27;61731;-75
2022/11/03 05:10:32;;;;;;;;;3.25;1.75;;;;;;;;5104485;27;62077;-74
2022/11/03 05:12:59;;;;;;;;;5.75;3.00;;;;;;;;5104166;27;62692;-74
2022/11/03 05:15:29;;;;;;;;;3.25;3.00;;;;;;;;5104675;27;61811;-74
2022/11/03 05:17:55;;;;;;;;;4.00;0.00;;;;;;;;5104407;27;61877;-75
2022/11/03 05:20:27;;;;;;;;;3.75;3.75;;;;;;;;5103303;27;61912;-75
2022/11/03 05:22:53;;;;;;;;;2.75;2.75;;;;;;;;5083555;28;61862;-75
2022/11/03 05:25:30;;;;;;;;;4.00;1.75;;;;;;;;5065533;28;61713;-74
2022/11/03 05:27:55;;;;;;;;;9.50;2.00;;;;;;;;5065481;28;61943;-74
2022/11/03 05:30:20;;;;;;;;;4.00;1.75;;;;;;;;5084258;27;61769;-74
2022/11/03 05:32:46;;;;;;;;;6.00;2.00;;;;;;;;5064457;28;64101;-74
2022/11/03 05:35:19;;;;;;;;;5.25;2.00;;;;;;;;5065070;27;61844;-74
2022/11/03 05:37:45;;;;;;;;;6.25;2.00;;;;;;;;5094033;27;61979;-74
2022/11/03 05:40:14;;;;;;;;;2.25;2.25;;;;;;;;5100310;27;61917;-74
2022/11/03 05:42:41;;;;;;;;;3.25;1.00;;;;;;;;5084881;27;63324;-75
2022/11/03 05:45:27;;;;;;;;;3.00;3.00;;;;;;;;5085657;27;61962;-74
2022/11/03 05:47:53;;;;;;;;;3.75;2.00;;;;;;;;5070522;27;62071;-74
2022/11/03 05:50:26;;;;;;;;;3.75;2.25;;;;;;;;5103679;27;61907;-74
2022/11/03 05:52:53;;;;;;;;;3.00;3.00;;;;;;;;5103317;27;61864;-74
2022/11/03 05:55:32;;;;;;;;;5.00;4.00;;;;;;;;5085112;27;61902;-74
2022/11/03 05:57:58;;;;;;;;;3.25;2.00;;;;;;;;5103916;27;61748;-74
2022/11/03 06:00:31;;;;;;;;;2.00;2.00;;;;;;;;5085592;27;61863;-74
2022/11/03 06:02:57;;;;;;;;;3.00;3.00;;;;;;;;5102486;27;61783;-74
2022/11/03 06:05:24;;;;;;;;;3.00;3.00;;;;;;;;5103569;27;61905;-74
2022/11/03 06:07:50;;;;;;;;;4.00;2.25;;;;;;;;5103530;27;61700;-74
2022/11/03 06:10:26;;;;;;;;;2.25;1.75;;;;;;;;5103895;27;62027;-74
2022/11/03 06:12:58;;;;;;;;;3.50;2.75;;;;;;;;5102608;27;61816;-75
2022/11/03 06:15:33;;;;;;;;;4.75;3.25;;;;;;;;5102578;27;61984;-75
2022/11/03 06:18:00;;;;;;;;;3.75;2.50;;;;;;;;5102874;27;61838;-75
2022/11/03 06:20:26;;;;;;;;;3.00;2.00;;;;;;;;5101869;27;61888;-74
2022/11/03 06:22:54;;;;;;;;;2.75;1.50;;;;;;;;5082282;28;61719;-75
2022/11/03 06:25:34;;;;;;;;;4.00;2.00;;;;;;;;5082494;27;61877;-74
2022/11/03 06:28:01;;;;;;;;;4.00;3.00;;;;;;;;5082781;27;61929;-75
2022/11/03 06:30:33;;;;;;;;;5.00;3.50;;;;;;;;5064788;28;61888;-76
2022/11/03 06:33:20;;;;;;;;;4.00;3.00;;;;;;;;5063025;28;62864;-76
2022/11/03 06:35:46;;;;;;;;;4.50;3.00;;;;;;;;5063943;28;61993;-76
2022/11/03 06:38:17;;;;;;;;;3.00;2.00;;;;;;;;5098464;27;61823;-76
2022/11/03 06:40:43;;;;;;;;;3.00;3.00;;;;;;;;5082183;27;61849;-75
2022/11/03 06:43:12;;;;;;;;;2.00;2.00;;;;;;;;5100839;27;62611;-74
2022/11/03 06:45:38;;;;;;;;;1.00;1.00;;;;;;;;5102647;27;61832;-74
2022/11/03 06:48:06;;;;;;;;;3.50;2.75;;;;;;;;5100523;27;61756;-74
2022/11/03 06:50:32;;;;;;;;;5.00;2.00;;;;;;;;5102346;27;61798;-74
2022/11/03 06:52:58;;;;;;;;;4.50;2.00;;;;;;;;5101647;27;61751;-74
2022/11/03 06:55:23;;;;;;;;;5.00;3.00;;;;;;;;5102639;27;61793;-74
2022/11/03 06:57:51;;;;;;;;;5.00;2.00;;;;;;;;5083102;27;61697;-73
2022/11/03 07:00:21;;;;;;;;;2.50;2.50;;;;;;;;5102416;27;61849;-73
2022/11/03 07:02:59;;;;;;;;;2.25;1.75;;;;;;;;5101142;27;62019;-74
2022/11/03 07:05:26;;;;;;;;;5.25;3.00;;;;;;;;5100000;27;62117;-74
2022/11/03 07:07:57;;;;;;;;;8.75;3.25;;;;;;;;5101238;27;61943;-74
2022/11/03 07:10:26;;;;;;;;;2.25;2.00;;;;;;;;5108887;27;62002;-74
2022/11/03 07:12:53;;;;;;;;;5.25;3.50;;;;;;;;5100973;27;61897;-74
2022/11/03 07:15:21;;;;;;;;;6.00;3.00;;;;;;;;5101744;27;62008;-74
2022/11/03 07:17:47;;;;;;;;;3.00;2.00;;;;;;;;5102358;27;61819;-74
2022/11/03 07:20:15;;;;;;;;;4.25;3.00;;;;;;;;5083891;27;61792;-74
2022/11/03 07:22:40;;;;;;;;;3.00;2.00;;;;;;;;5102161;27;62017;-74
2022/11/03 07:25:12;;;;;;;;;2.00;2.00;;;;;;;;5102915;27;61745;-74
2022/11/03 07:27:39;;;;;;;;;6.50;2.00;;;;;;;;5106469;27;61931;-74
2022/11/03 07:30:07;;;;;;;;;3.75;3.25;;;;;;;;5105780;27;61906;-74
2022/11/03 07:32:33;;;;;;;;;3.00;3.00;;;;;;;;5105277;27;62004;-74
2022/11/03 07:35:03;;;;;;;;;3.00;2.00;;;;;;;;5105986;27;61712;-74
2022/11/03 07:37:29;;;;;;;;;4.00;3.00;;;;;;;;5087891;27;61903;-74
2022/11/03 07:39:56;;;;;;;;;10.00;2.00;;;;;;;;5106086;27;62190;-75
2022/11/03 07:42:23;;;;;;;;;3.00;2.75;;;;;;;;5105471;27;61936;-74
2022/11/03 07:44:49;;;;;;;;;3.50;3.00;;;;;;;;5105718;27;61775;-75
2022/11/03 07:47:26;;;;;;;;;2.50;1.50;;;;;;;;5105396;27;61950;-77
2022/11/03 07:49:53;;;;;;;;;4.25;2.75;;;;;;;;5087413;27;62112;-74
2022/11/03 07:52:20;;;;;;;;;2.50;2.50;;;;;;;;5086768;27;63574;-75
2022/11/03 07:54:45;;;;;;;;;4.25;3.50;;;;;;;;5105532;27;61959;-75
2022/11/03 07:57:16;;;;;;;;;3.00;1.75;;;;;;;;5105751;27;61807;-75
2022/11/03 07:59:44;;;;;;;;;4.00;3.00;;;;;;;;5105858;27;61795;-74
2022/11/03 08:02:22;;;;;;;;;3.25;2.25;;;;;;;;5104739;27;61824;-75
2022/11/03 08:04:48;;;;;;;;;3.25;2.00;;;;;;;;5087118;27;61731;-75
2022/11/03 08:07:14;;;;;;;;;2.25;2.00;;;;;;;;5087047;27;62174;-75
2022/11/03 08:09:39;;;;;;;;;1.50;1.50;;;;;;;;5105928;27;61807;-75
2022/11/03 08:12:04;;;;;;;;;4.00;4.00;;;;;;;;5104854;27;62731;-75
2022/11/03 08:14:30;;;;;;;;;3.00;2.25;;;;;;;;5105163;27;62322;-75
2022/11/03 08:16:55;;;;;;;;;2.25;2.25;;;;;;;;5087070;27;62150;-75
2022/11/03 08:19:20;;;;;;;;;2.25;1.50;;;;;;;;5105175;27;61888;-75
2022/11/03 08:21:46;;;;;;;;;3.00;2.00;;;;;;;;5086399;27;61867;-75
2022/11/03 08:24:11;;;;;;;;;5.25;3.25;;;;;;;;5105520;27;61843;-75
2022/11/03 08:26:36;;;;;;;;;2.75;2.75;;;;;;;;5105444;27;62058;-75
2022/11/03 08:29:01;;;;;;;;;2.00;2.00;;;;;;;;5105320;27;61799;-75
2022/11/03 08:31:27;;;;;;;;;2.50;2.00;;;;;;;;5104487;27;61997;-75
2022/11/03 08:33:52;;;;;;;;;3.00;3.00;;;;;;;;5105518;27;61771;-75
2022/11/03 08:36:18;;;;;;;;;2.00;2.00;;;;;;;;5105073;27;62025;-75
2022/11/03 08:38:44;;;;;;;;;3.00;2.00;;;;;;;;5082397;27;61750;-75
2022/11/03 08:41:09;;;;;;;;;4.25;2.00;;;;;;;;5086147;27;61838;-74
2022/11/03 08:43:34;;;;;;;;;2.00;2.00;;;;;;;;5104666;27;61771;-75
2022/11/03 08:46:00;;;;;;;;;2.00;2.00;;;;;;;;5104754;27;61878;-75
2022/11/03 08:48:26;;;;;;;;;2.00;2.00;;;;;;;;5104577;27;62256;-76
2022/11/03 08:50:53;;;;;;;;;2.00;2.00;;;;;;;;5104826;27;61815;-75
2022/11/03 08:53:18;;;;;;;;;3.75;2.00;;;;;;;;5104717;27;61838;-75
2022/11/03 08:55:43;;;;;;;;;2.00;2.00;;;;;;;;5104970;27;61675;-75
2022/11/03 08:58:08;;;;;;;;;4.00;4.00;;;;;;;;5086038;27;62209;-75
2022/11/03 09:00:35;;;;;;;;;4.00;2.00;;;;;;;;5104186;27;62785;-75
2022/11/03 09:03:00;;;;;;;;;3.00;3.00;;;;;;;;5104820;27;62077;-75
2022/11/03 09:05:25;;;;;;;;;2.50;2.00;;;;;;;;5104358;27;61664;-75
2022/11/03 09:07:51;;;;;;;;;4.50;3.00;;;;;;;;5104926;27;61721;-75
2022/11/03 09:10:16;;;;;;;;;2.00;2.00;;;;;;;;5103940;27;61873;-75
2022/11/03 09:12:41;;;;;;;;;4.50;3.00;;;;;;;;5104470;27;61862;-75
2022/11/03 09:15:07;;;;;;;;;2.25;2.25;;;;;;;;5104722;27;61769;-75
2022/11/03 09:17:32;;;;;;;;;3.25;3.25;;;;;;;;5104325;27;61956;-75
2022/11/03 09:19:58;;;;;;;;;2.00;2.00;;;;;;;;5103503;27;61728;-75
2022/11/03 09:22:23;;;;;;;;;4.00;2.00;;;;;;;;5104516;27;61848;-75
2022/11/03 09:24:48;;;;;;;;;1.25;1.25;;;;;;;;5104731;27;61758;-75
2022/11/03 09:27:14;;;;;;;;;2.00;2.00;;;;;;;;5085849;27;61788;-75
2022/11/03 09:29:39;;;;;;;;;4.00;3.00;;;;;;;;5103615;27;62521;-75
2022/11/03 09:32:05;;;;;;;;;2.50;2.00;;;;;;;;5085602;27;61852;-75
2022/11/03 09:34:30;;;;;;;;;1.00;1.00;;;;;;;;5104312;27;61876;-75
2022/11/03 09:36:56;;;;;;;;;3.75;2.50;;;;;;;;5086137;27;61759;-75
2022/11/03 09:39:21;;;;;;;;;4.50;3.00;;;;;;;;5099417;27;61805;-75
2022/11/03 09:41:46;;;;;;;;;2.75;2.00;;;;;;;;5103757;27;61912;-75
2022/11/03 09:44:12;;;;;;;;;1.75;1.50;;;;;;;;5104421;27;61908;-75
2022/11/03 09:46:37;;;;;;;;;2.00;2.00;;;;;;;;5103935;27;61737;-75
2022/11/03 09:49:03;;;;;;;;;3.25;2.00;;;;;;;;5101818;27;61793;-75
2022/11/03 09:51:29;;;;;;;;;1.25;1.25;;;;;;;;5103927;27;61787;-75
2022/11/03 09:53:56;;;;;;;;;2.00;1.00;;;;;;;;5103980;27;61845;-75
2022/11/03 09:56:23;;;;;;;;;3.75;2.00;;;;;;;;5103844;27;61982;-74
2022/11/03 09:58:48;;;;;;;;;3.00;3.00;;;;;;;;5103316;27;61886;-75
2022/11/03 10:01:13;;;;;;;;;2.25;2.00;;;;;;;;5103340;27;61921;-75
2022/11/03 10:03:39;;;;;;;;;3.00;3.00;;;;;;;;5085137;27;61895;-75
2022/11/03 10:06:04;;;;;;;;;3.75;3.75;;;;;;;;5104196;27;62010;-75
2022/11/03 10:08:31;;;;;;;;;3.75;1.00;;;;;;;;5103091;27;62334;-74
2022/11/03 10:10:57;;;;;;;;;3.00;2.00;;;;;;;;5085131;27;61938;-75
2022/11/03 10:13:22;;;;;;;;;4.50;2.00;;;;;;;;5103663;27;61888;-75
2022/11/03 10:15:48;;;;;;;;;5.50;3.50;;;;;;;;5103318;27;61709;-75
2022/11/03 10:18:14;;;;;;;;;3.50;2.00;;;;;;;;5084529;27;64393;-75
2022/11/03 10:20:39;;;;;;;;;2.75;2.75;;;;;;;;5084517;27;61775;-75
2022/11/03 10:23:04;;;;;;;;;5.00;2.25;;;;;;;;5103889;27;61827;-75
2022/11/03 10:25:38;;;;;;;;;1.50;1.00;;;;;;;;5084866;27;61756;-75
2022/11/03 10:28:16;;;;;;;;;2.25;2.25;;;;;;;;5102639;27;62086;-75
2022/11/03 10:30:55;;;;;;;;;2.00;2.00;;;;;;;;5103119;27;61742;-75
2022/11/03 10:33:28;;;;;;;;;2.00;1.00;;;;;;;;5084896;27;61826;-75
2022/11/03 10:35:54;;;;;;;;;2.25;2.25;;;;;;;;5103076;27;62138;-75
2022/11/03 10:38:30;;;;;;;;;3.75;2.25;;;;;;;;5101141;27;61884;-75
2022/11/03 10:41:07;;;;;;;;;4.75;2.50;;;;;;;;5101785;27;62005;-75
2022/11/03 10:43:33;;;;;;;;;1.25;1.25;;;;;;;;5103208;27;61776;-75
2022/11/03 10:46:16;;;;;;;;;2.50;1.00;;;;;;;;5102662;27;62033;-75
2022/11/03 10:48:42;;;;;;;;;3.25;2.25;;;;;;;;5102187;27;61854;-75
2022/11/03 10:51:09;;;;;;;;;2.50;1.25;;;;;;;;5102881;27;61736;-75
2022/11/03 10:53:35;;;;;;;;;2.25;2.25;;;;;;;;5102937;27;61887;-75
2022/11/03 10:56:00;;;;;;;;;2.00;2.00;;;;;;;;5103159;27;61740;-75
2022/11/03 10:58:25;;;;;;;;;3.00;1.00;;;;;;;;5083643;27;63762;-75
2022/11/03 11:00:51;;;;;;;;;4.00;1.75;;;;;;;;5083846;27;61870;-75
2022/11/03 11:03:16;;;;;;;;;1.75;1.00;;;;;;;;5103070;27;61676;-75
2022/11/03 11:05:45;;;;;;;;;2.00;1.00;;;;;;;;5103074;27;62146;-75
2022/11/03 11:08:12;;;;;;;;;3.00;2.00;;;;;;;;5083335;27;63518;-75
2022/11/03 11:10:42;;;;;;;;;1.00;1.00;;;;;;;;5103065;27;61920;-75
2022/11/03 11:13:11;;;;;;;;;1.25;1.25;;;;;;;;5084255;27;61838;-75
2022/11/03 11:15:37;;;;;;;;;2.75;1.50;;;;;;;;5103123;27;61736;-75
2022/11/03 11:18:02;;;;;;;;;5.00;2.00;;;;;;;;5083091;27;63160;-75
2022/11/03 11:20:40;;;;;;;;;1.00;1.00;;;;;;;;5102104;27;61811;-75
2022/11/03 11:23:24;;;;;;;;;2.00;1.00;;;;;;;;5102734;27;62270;-75
2022/11/03 11:26:13;;;;;;;;;2.50;0.00;;;;;;;;5102348;27;61727;-75
2022/11/03 11:28:39;;;;;;;;;2.00;2.00;;;;;;;;5083561;27;64385;-75
2022/11/03 11:31:23;;;;;;;;;1.00;1.00;;;;;;;;5083699;27;62046;-75
2022/11/03 11:33:49;;;;;;;;;1.00;1.00;;;;;;;;5102277;27;61760;-75
2022/11/03 11:36:22;;;;;;;;;2.00;2.00;;;;;;;;5083227;27;61810;-75
2022/11/03 11:38:47;;;;;;;;;2.00;2.00;;;;;;;;5083307;27;62998;-75
2022/11/03 11:41:12;;;;;;;;;2.50;2.50;;;;;;;;5102470;27;61758;-75
2022/11/03 11:43:38;;;;;;;;;7.00;2.50;;;;;;;;5102863;27;61819;-75
2022/11/03 11:46:21;;;;;;;;;2.50;1.50;;;;;;;;5083406;27;61794;-75
2022/11/03 11:48:56;;;;;;;;;3.50;3.50;;;;;;;;5101268;27;62983;-75
2022/11/03 11:51:22;;;;;;;;;3.50;2.25;;;;;;;;5083586;27;61771;-75
2022/11/03 11:53:49;;;;;;;;;12.75;7.00;;;;;;;;5102265;27;61738;-75
2022/11/03 11:56:15;;;;;;;;;2.00;2.00;;;;;;;;5102660;27;61779;-75
2022/11/03 11:58:42;;;;;;;;;2.50;2.50;;;;;;;;5079805;27;63510;-75
2022/11/03 12:01:21;;;;;;;;;3.25;3.00;;;;;;;;5081304;27;62151;-75
2022/11/03 12:03:46;;;;;;;;;3.25;2.75;;;;;;;;5080348;27;61968;-75
2022/11/03 12:06:12;;;;;;;;;4.75;2.75;;;;;;;;5081457;27;61709;-74
2022/11/03 12:08:38;;;;;;;;;1.25;1.25;;;;;;;;5081396;27;61981;-74
2022/11/03 12:11:04;;;;;;;;;2.00;1.00;;;;;;;;5081649;28;61801;-74
2022/11/03 12:13:35;;;;;;;;;4.00;3.00;;;;;;;;5084170;28;61911;-75
2022/11/03 12:16:01;;;;;;;;;3.00;3.00;;;;;;;;5084794;27;61752;-75
2022/11/03 12:18:29;;;;;;;;;3.75;3.00;;;;;;;;5084165;27;62761;-74
2022/11/03 12:20:55;;;;;;;;;1.50;1.50;;;;;;;;5083513;28;61866;-75
2022/11/03 12:23:40;;;;;;;;;5.00;3.75;;;;;;;;5085034;27;61751;-75
2022/11/03 12:26:12;;;;;;;;;2.00;2.00;;;;;;;;5085070;28;61751;-74
2022/11/03 12:28:37;;;;;;;;;2.50;2.50;;;;;;;;5084431;28;61763;-75
2022/11/03 12:31:03;;;;;;;;;7.00;7.00;;;;;;;;5084432;28;61766;-75
2022/11/03 12:33:28;;;;;;;;;3.75;3.75;;;;;;;;5085139;27;61697;-74
2022/11/03 12:35:54;;;;;;;;;4.75;4.75;;;;;;;;5084295;27;61894;-75
2022/11/03 12:38:19;;;;;;;;;5.50;3.75;;;;;;;;5084320;27;62889;-75
2022/11/03 12:40:45;;;;;;;;;7.00;2.75;;;;;;;;5083331;27;62003;-75
2022/11/03 12:43:10;;;;;;;;;4.00;3.00;;;;;;;;5084809;27;61795;-75
2022/11/03 12:45:35;;;;;;;;;3.75;3.50;;;;;;;;5083760;28;62085;-75
2022/11/03 12:48:00;;;;;;;;;2.50;2.25;;;;;;;;5083265;27;61906;-75
2022/11/03 12:50:26;;;;;;;;;4.00;2.25;;;;;;;;5083615;27;61857;-75
2022/11/03 12:52:51;;;;;;;;;3.00;3.00;;;;;;;;5085008;28;62073;-75
2022/11/03 12:55:17;;;;;;;;;8.50;5.25;;;;;;;;5084304;27;61996;-75
2022/11/03 12:57:44;;;;;;;;;3.75;2.75;;;;;;;;5090483;27;62579;-75
2022/11/03 13:00:11;;;;;;;;;1.75;1.25;;;;;;;;5104793;27;61687;-75
2022/11/03 13:02:36;;;;;;;;;4.50;2.50;;;;;;;;5086158;27;62113;-75
2022/11/03 13:05:01;;;;;;;;;5.00;4.00;;;;;;;;5085825;27;61796;-75
2022/11/03 13:07:27;;;;;;;;;1.50;1.25;;;;;;;;5104208;27;63012;-75
2022/11/03 13:09:52;;;;;;;;;2.00;2.00;;;;;;;;5104947;27;61685;-75
2022/11/03 13:12:34;;;;;;;;;3.75;2.00;;;;;;;;5086370;27;62013;-75
2022/11/03 13:15:04;;;;;;;;;2.50;1.50;;;;;;;;5086239;27;61672;-74
2022/11/03 13:17:29;;;;;;;;;4.25;2.00;;;;;;;;5084869;27;63501;-75
2022/11/03 13:19:54;;;;;;;;;1.25;1.25;;;;;;;;5085627;27;61874;-75
2022/11/03 13:22:20;;;;;;;;;3.25;2.00;;;;;;;;5104594;27;61854;-75
2022/11/03 13:24:45;;;;;;;;;3.00;2.25;;;;;;;;5086362;27;62148;-75
2022/11/03 13:27:10;;;;;;;;;2.00;2.00;;;;;;;;5103365;27;61842;-74
2022/11/03 13:29:35;;;;;;;;;1.00;1.00;;;;;;;;5104655;27;61898;-75
2022/11/03 13:32:02;;;;;;;;;1.25;1.25;;;;;;;;5085332;27;62118;-75
2022/11/03 13:34:27;;;;;;;;;1.50;1.00;;;;;;;;5104586;27;61796;-75
2022/11/03 13:36:53;;;;;;;;;3.00;1.00;;;;;;;;5103751;27;61812;-75
2022/11/03 13:39:18;;;;;;;;;1.50;1.00;;;;;;;;5076685;27;61959;-74
2022/11/03 13:41:43;;;;;;;;;2.00;1.00;;;;;;;;5084070;28;61678;-74
2022/11/03 13:44:08;;;;;;;;;1.00;1.00;;;;;;;;5084037;27;61882;-75
2022/11/03 13:46:34;;;;;;;;;1.00;1.00;;;;;;;;5063861;28;64602;-75
2022/11/03 13:48:59;;;;;;;;;1.00;1.00;;;;;;;;5083493;28;61839;-75
2022/11/03 13:51:24;;;;;;;;;3.00;1.75;;;;;;;;5083660;27;61823;-75
2022/11/03 13:53:50;;;;;;;;;3.75;1.00;;;;;;;;5083922;28;61724;-75
2022/11/03 13:56:15;;;;;;;;;3.00;2.00;;;;;;;;5082938;28;61802;-75
2022/11/03 13:58:40;;;;;;;;;2.00;2.00;;;;;;;;5078738;28;61889;-75
2022/11/03 14:01:06;;;;;;;;;11.50;6.00;;;;;;;;5062448;28;61831;-75
2022/11/03 14:03:31;;;;;;;;;9.00;8.00;;;;;;;;5063170;28;62173;-75
2022/11/03 14:05:56;;;;;;;;;2.00;2.00;;;;;;;;5062466;28;62669;-75
2022/11/03 14:08:22;;;;;;;;;1.75;1.25;;;;;;;;5062809;28;61804;-75
2022/11/03 14:10:47;;;;;;;;;1.50;1.50;;;;;;;;5063173;28;61848;-75
2022/11/03 14:13:12;;;;;;;;;3.75;2.75;;;;;;;;5061909;28;61731;-75
2022/11/03 14:15:37;;;;;;;;;1.75;1.75;;;;;;;;5061925;28;62051;-75
2022/11/03 14:18:03;;;;;;;;;3.75;2.00;;;;;;;;5061512;28;61943;-75
2022/11/03 14:20:28;;;;;;;;;2.00;2.00;;;;;;;;5062135;28;61780;-75
2022/11/03 14:22:53;;;;;;;;;2.00;1.00;;;;;;;;5063475;28;61844;-75
2022/11/03 14:25:19;;;;;;;;;2.00;2.00;;;;;;;;5062056;28;62739;-75
2022/11/03 14:27:44;;;;;;;;;4.75;2.00;;;;;;;;5062749;28;61987;-75
2022/11/03 14:30:10;;;;;;;;;5.00;2.00;;;;;;;;5061109;28;61776;-75
2022/11/03 14:32:35;;;;;;;;;2.00;2.00;;;;;;;;5062177;28;61761;-74
2022/11/03 14:35:01;;;;;;;;;6.25;2.00;;;;;;;;5061608;28;61811;-75
2022/11/03 14:37:27;;;;;;;;;1.75;1.75;;;;;;;;5061201;28;61947;-75
2022/11/03 14:39:52;;;;;;;;;5.25;2.00;;;;;;;;5076504;28;61949;-75
2022/11/03 14:42:18;;;;;;;;;3.00;3.00;;;;;;;;5083384;27;61885;-75
2022/11/03 14:44:44;;;;;;;;;4.00;4.00;;;;;;;;5081497;27;61738;-75
2022/11/03 14:47:11;;;;;;;;;1.00;1.00;;;;;;;;5080826;28;61886;-75
2022/11/03 14:49:36;;;;;;;;;1.00;1.00;;;;;;;;5082414;27;62082;-74
2022/11/03 14:52:02;;;;;;;;;1.00;1.00;;;;;;;;5081586;27;61899;-75
2022/11/03 14:54:29;;;;;;;;;4.75;2.00;;;;;;;;5082055;27;61890;-75
2022/11/03 14:56:54;;;;;;;;;1.00;1.00;;;;;;;;5082701;27;62054;-75
2022/11/03 14:59:20;;;;;;;;;2.00;1.75;;;;;;;;5102714;27;61887;-75
2022/11/03 15:01:46;;;;;;;;;2.50;2.50;;;;;;;;5102825;27;61894;-75